sensor_id;sensor_type;location;lat;lon;timestamp;pressure;altitude;pressure_sealevel;temperature;humidity
68986;BME280;56035;37.534;-122.308;2023-06-14T00:01:50;101296.44;;;17.83;100.00
68986;BME280;56035;37.534;-122.308;2023-06-14T00:04:16;101295.88;;;17.81;100.00
68986;BME280;56035;37.534;-122.308;2023-06-14T00:06:42;101286.66;;;17.75;100.00
68986;BME280;56035;37.534;-122.308;2023-06-14T00:09:11;101297.22;;;17.68;100.00
68986;BME280;56035;37.534;-122.308;2023-06-14T00:11:38;101294.16;;;17.64;100.00
68986;BME280;56035;37.534;-122.308;2023-06-14T00:14:04;101282.72;;;17.50;100.00
68986;BME280;56035;37.534;-122.308;2023-06-14T00:16:30;101283.28;;;17.58;100.00
68986;BME280;56035;37.534;-122.308;2023-06-14T00:18:58;101272.66;;;17.34;100.00
68986;BME280;56035;37.534;-122.308;2023-06-14T00:21:24;101274.34;;;17.40;100.00
68986;BME280;56035;37.534;-122.308;2023-06-14T00:23:49;101269.88;;;17.39;100.00
68986;BME280;56035;37.534;-122.308;2023-06-14T00:26:15;101240.91;;;17.25;100.00
68986;BME280;56035;37.534;-122.308;2023-06-14T00:28:41;101264.81;;;17.11;100.00
68986;BME280;56035;37.534;-122.308;2023-06-14T00:31:07;101258.88;;;16.87;100.00
68986;BME280;56035;37.534;-122.308;2023-06-14T00:33:33;101246.91;;;16.86;100.00
68986;BME280;56035;37.534;-122.308;2023-06-14T00:35:59;101244.16;;;16.91;100.00
68986;BME280;56035;37.534;-122.308;2023-06-14T00:38:25;101244.16;;;16.96;100.00
68986;BME280;56035;37.534;-122.308;2023-06-14T00:40:51;101243.56;;;16.84;100.00
68986;BME280;56035;37.534;-122.308;2023-06-14T00:43:16;101245.22;;;16.85;100.00
68986;BME280;56035;37.534;-122.308;2023-06-14T00:45:42;101234.06;;;16.80;100.00
68986;BME280;56035;37.534;-122.308;2023-06-14T00:48:08;101243.53;;;16.79;100.00
68986;BME280;56035;37.534;-122.308;2023-06-14T00:50:34;101236.84;;;16.80;100.00
68986;BME280;56035;37.534;-122.308;2023-06-14T00:53:01;101229.56;;;16.74;100.00
68986;BME280;56035;37.534;-122.308;2023-06-14T00:55:28;101240.16;;;16.72;100.00
68986;BME280;56035;37.534;-122.308;2023-06-14T00:57:54;101221.47;;;16.67;100.00
68986;BME280;56035;37.534;-122.308;2023-06-14T01:00:20;101217.31;;;16.65;100.00
68986;BME280;56035;37.534;-122.308;2023-06-14T01:02:46;101219.25;;;16.69;100.00
68986;BME280;56035;37.534;-122.308;2023-06-14T01:05:12;101212.28;;;16.61;100.00
68986;BME280;56035;37.534;-122.308;2023-06-14T01:07:59;101206.09;;;16.49;100.00
68986;BME280;56035;37.534;-122.308;2023-06-14T01:15:36;101204.44;;;16.48;100.00
68986;BME280;56035;37.534;-122.308;2023-06-14T01:18:03;101196.63;;;16.45;100.00
68986;BME280;56035;37.534;-122.308;2023-06-14T01:20:29;101202.38;;;16.28;100.00
68986;BME280;56035;37.534;-122.308;2023-06-14T01:22:57;101208.50;;;16.25;100.00
68986;BME280;56035;37.534;-122.308;2023-06-14T01:25:25;101207.63;;;16.25;100.00
68986;BME280;56035;37.534;-122.308;2023-06-14T01:27:53;101212.34;;;16.24;100.00
68986;BME280;56035;37.534;-122.308;2023-06-14T01:30:19;101218.44;;;16.21;100.00
68986;BME280;56035;37.534;-122.308;2023-06-14T01:32:45;101208.09;;;16.11;100.00
68986;BME280;56035;37.534;-122.308;2023-06-14T01:35:12;101198.69;;;16.12;100.00
68986;BME280;56035;37.534;-122.308;2023-06-14T01:37:38;101215.91;;;16.14;100.00
68986;BME280;56035;37.534;-122.308;2023-06-14T01:40:05;101218.63;;;16.04;100.00
68986;BME280;56035;37.534;-122.308;2023-06-14T01:42:33;101224.13;;;15.94;100.00
68986;BME280;56035;37.534;-122.308;2023-06-14T01:44:59;101217.44;;;15.90;100.00
68986;BME280;56035;37.534;-122.308;2023-06-14T01:47:26;101227.66;;;15.84;100.00
68986;BME280;56035;37.534;-122.308;2023-06-14T01:49:52;101230.44;;;15.84;100.00
68986;BME280;56035;37.534;-122.308;2023-06-14T01:52:18;101235.09;;;15.79;100.00
68986;BME280;56035;37.534;-122.308;2023-06-14T01:54:44;101232.84;;;15.76;100.00
68986;BME280;56035;37.534;-122.308;2023-06-14T01:57:11;101233.66;;;15.71;100.00
68986;BME280;56035;37.534;-122.308;2023-06-14T01:59:40;101226.13;;;15.66;100.00
68986;BME280;56035;37.534;-122.308;2023-06-14T02:02:06;101236.00;;;15.57;100.00
68986;BME280;56035;37.534;-122.308;2023-06-14T02:04:32;101222.91;;;15.53;100.00
68986;BME280;56035;37.534;-122.308;2023-06-14T02:06:57;101236.44;;;15.44;100.00
68986;BME280;56035;37.534;-122.308;2023-06-14T02:09:23;101241.69;;;15.40;100.00
68986;BME280;56035;37.534;-122.308;2023-06-14T02:11:49;101250.78;;;15.36;100.00
68986;BME280;56035;37.534;-122.308;2023-06-14T02:14:15;101246.88;;;15.32;100.00
68986;BME280;56035;37.534;-122.308;2023-06-14T02:16:42;101243.78;;;15.28;100.00
68986;BME280;56035;37.534;-122.308;2023-06-14T02:19:16;101239.56;;;15.20;100.00
68986;BME280;56035;37.534;-122.308;2023-06-14T02:21:42;101246.16;;;15.14;100.00
68986;BME280;56035;37.534;-122.308;2023-06-14T02:24:08;101254.91;;;15.06;100.00
68986;BME280;56035;37.534;-122.308;2023-06-14T02:26:35;101255.41;;;14.98;100.00
68986;BME280;56035;37.534;-122.308;2023-06-14T02:29:05;101264.22;;;14.95;100.00
68986;BME280;56035;37.534;-122.308;2023-06-14T02:31:35;101271.06;;;14.87;100.00
68986;BME280;56035;37.534;-122.308;2023-06-14T02:34:01;101274.34;;;14.84;100.00
68986;BME280;56035;37.534;-122.308;2023-06-14T02:36:27;101282.53;;;14.74;100.00
68986;BME280;56035;37.534;-122.308;2023-06-14T02:38:55;101283.84;;;14.66;100.00
68986;BME280;56035;37.534;-122.308;2023-06-14T02:41:25;101268.53;;;14.64;100.00
68986;BME280;56035;37.534;-122.308;2023-06-14T02:43:52;101282.59;;;14.57;100.00
68986;BME280;56035;37.534;-122.308;2023-06-14T02:46:18;101303.34;;;14.55;100.00
68986;BME280;56035;37.534;-122.308;2023-06-14T02:48:44;101297.72;;;14.49;100.00
68986;BME280;56035;37.534;-122.308;2023-06-14T02:51:11;101298.72;;;14.43;100.00
68986;BME280;56035;37.534;-122.308;2023-06-14T02:53:38;101286.66;;;14.33;100.00
68986;BME280;56035;37.534;-122.308;2023-06-14T02:56:04;101294.66;;;14.29;100.00
68986;BME280;56035;37.534;-122.308;2023-06-14T02:58:30;101290.63;;;14.20;100.00
68986;BME280;56035;37.534;-122.308;2023-06-14T03:00:56;101291.63;;;14.14;100.00
68986;BME280;56035;37.534;-122.308;2023-06-14T03:03:22;101294.56;;;14.07;100.00
68986;BME280;56035;37.534;-122.308;2023-06-14T03:05:50;101302.13;;;13.95;100.00
68986;BME280;56035;37.534;-122.308;2023-06-14T03:08:16;101288.44;;;13.88;100.00
68986;BME280;56035;37.534;-122.308;2023-06-14T03:10:47;101281.97;;;13.82;100.00
68986;BME280;56035;37.534;-122.308;2023-06-14T03:13:14;101277.69;;;13.75;100.00
68986;BME280;56035;37.534;-122.308;2023-06-14T03:15:44;101280.84;;;13.67;100.00
68986;BME280;56035;37.534;-122.308;2023-06-14T03:18:10;101285.50;;;13.61;100.00
68986;BME280;56035;37.534;-122.308;2023-06-14T03:20:37;101273.47;;;13.55;100.00
68986;BME280;56035;37.534;-122.308;2023-06-14T03:23:04;101278.91;;;13.50;100.00
68986;BME280;56035;37.534;-122.308;2023-06-14T03:25:31;101276.91;;;13.46;100.00
68986;BME280;56035;37.534;-122.308;2023-06-14T03:27:58;101284.75;;;13.37;100.00
68986;BME280;56035;37.534;-122.308;2023-06-14T03:30:24;101286.34;;;13.33;100.00
68986;BME280;56035;37.534;-122.308;2023-06-14T03:32:50;101274.34;;;13.27;100.00
68986;BME280;56035;37.534;-122.308;2023-06-14T03:35:21;101271.44;;;13.22;100.00
68986;BME280;56035;37.534;-122.308;2023-06-14T03:37:47;101266.16;;;13.21;100.00
68986;BME280;56035;37.534;-122.308;2023-06-14T03:40:13;101263.03;;;13.17;100.00
68986;BME280;56035;37.534;-122.308;2023-06-14T03:42:39;101264.41;;;13.15;100.00
68986;BME280;56035;37.534;-122.308;2023-06-14T03:45:05;101262.13;;;13.11;100.00
68986;BME280;56035;37.534;-122.308;2023-06-14T03:47:32;101283.03;;;13.07;100.00
68986;BME280;56035;37.534;-122.308;2023-06-14T03:49:58;101279.94;;;13.04;100.00
68986;BME280;56035;37.534;-122.308;2023-06-14T03:52:24;101283.19;;;13.01;100.00
68986;BME280;56035;37.534;-122.308;2023-06-14T03:54:50;101288.63;;;12.96;100.00
68986;BME280;56035;37.534;-122.308;2023-06-14T03:57:16;101288.50;;;12.91;100.00
68986;BME280;56035;37.534;-122.308;2023-06-14T03:59:42;101286.22;;;12.87;100.00
68986;BME280;56035;37.534;-122.308;2023-06-14T04:02:08;101286.50;;;12.86;100.00
68986;BME280;56035;37.534;-122.308;2023-06-14T04:04:40;101283.38;;;12.82;100.00
68986;BME280;56035;37.534;-122.308;2023-06-14T04:07:09;101278.34;;;12.79;100.00
68986;BME280;56035;37.534;-122.308;2023-06-14T04:09:37;101286.03;;;12.77;100.00
68986;BME280;56035;37.534;-122.308;2023-06-14T04:12:03;101303.09;;;12.74;100.00
68986;BME280;56035;37.534;-122.308;2023-06-14T04:14:28;101304.41;;;12.72;100.00
68986;BME280;56035;37.534;-122.308;2023-06-14T04:16:56;101295.28;;;12.71;100.00
68986;BME280;56035;37.534;-122.308;2023-06-14T04:19:21;101303.22;;;12.68;100.00
68986;BME280;56035;37.534;-122.308;2023-06-14T04:21:47;101304.56;;;12.65;100.00
68986;BME280;56035;37.534;-122.308;2023-06-14T04:24:13;101301.22;;;12.63;100.00
68986;BME280;56035;37.534;-122.308;2023-06-14T04:26:39;101303.97;;;12.63;100.00
68986;BME280;56035;37.534;-122.308;2023-06-14T04:29:05;101313.59;;;12.60;100.00
68986;BME280;56035;37.534;-122.308;2023-06-14T04:31:31;101316.81;;;12.57;100.00
68986;BME280;56035;37.534;-122.308;2023-06-14T04:34:03;101322.00;;;12.54;100.00
68986;BME280;56035;37.534;-122.308;2023-06-14T04:36:32;101325.00;;;12.52;100.00
68986;BME280;56035;37.534;-122.308;2023-06-14T04:39:00;101329.09;;;12.50;100.00
68986;BME280;56035;37.534;-122.308;2023-06-14T04:41:28;101328.50;;;12.48;100.00
68986;BME280;56035;37.534;-122.308;2023-06-14T04:44:02;101330.66;;;12.46;100.00
68986;BME280;56035;37.534;-122.308;2023-06-14T04:46:28;101333.91;;;12.43;100.00
68986;BME280;56035;37.534;-122.308;2023-06-14T04:48:55;101338.84;;;12.40;100.00
68986;BME280;56035;37.534;-122.308;2023-06-14T04:51:21;101348.22;;;12.39;100.00
68986;BME280;56035;37.534;-122.308;2023-06-14T04:53:58;101355.28;;;12.35;100.00
68986;BME280;56035;37.534;-122.308;2023-06-14T04:56:24;101362.50;;;12.36;100.00
68986;BME280;56035;37.534;-122.308;2023-06-14T04:58:55;101362.97;;;12.33;100.00
68986;BME280;56035;37.534;-122.308;2023-06-14T05:01:21;101352.97;;;12.32;100.00
68986;BME280;56035;37.534;-122.308;2023-06-14T05:03:48;101349.88;;;12.29;100.00
68986;BME280;56035;37.534;-122.308;2023-06-14T05:06:15;101346.53;;;12.27;100.00
68986;BME280;56035;37.534;-122.308;2023-06-14T05:08:42;101335.69;;;12.25;100.00
68986;BME280;56035;37.534;-122.308;2023-06-14T05:11:08;101342.31;;;12.24;100.00
68986;BME280;56035;37.534;-122.308;2023-06-14T05:13:34;101347.00;;;12.24;100.00
68986;BME280;56035;37.534;-122.308;2023-06-14T05:16:00;101341.13;;;12.20;100.00
68986;BME280;56035;37.534;-122.308;2023-06-14T05:18:26;101341.13;;;12.20;100.00
68986;BME280;56035;37.534;-122.308;2023-06-14T05:20:52;101352.16;;;12.20;100.00
68986;BME280;56035;37.534;-122.308;2023-06-14T05:23:18;101342.41;;;12.17;100.00
68986;BME280;56035;37.534;-122.308;2023-06-14T05:25:44;101336.06;;;12.17;100.00
68986;BME280;56035;37.534;-122.308;2023-06-14T05:28:10;101340.97;;;12.15;100.00
68986;BME280;56035;37.534;-122.308;2023-06-14T05:30:37;101338.22;;;12.15;100.00
68986;BME280;56035;37.534;-122.308;2023-06-14T05:33:03;101337.38;;;12.14;100.00
68986;BME280;56035;37.534;-122.308;2023-06-14T05:35:29;101335.69;;;12.13;100.00
68986;BME280;56035;37.534;-122.308;2023-06-14T05:37:55;101330.19;;;12.13;100.00
68986;BME280;56035;37.534;-122.308;2023-06-14T05:40:21;101318.50;;;12.11;100.00
68986;BME280;56035;37.534;-122.308;2023-06-14T05:42:47;101311.53;;;12.09;100.00
68986;BME280;56035;37.534;-122.308;2023-06-14T05:45:13;101326.44;;;12.08;100.00
68986;BME280;56035;37.534;-122.308;2023-06-14T05:47:41;101327.75;;;12.05;100.00
68986;BME280;56035;37.534;-122.308;2023-06-14T05:50:07;101328.59;;;12.06;100.00
68986;BME280;56035;37.534;-122.308;2023-06-14T05:52:33;101321.88;;;12.02;100.00
68986;BME280;56035;37.534;-122.308;2023-06-14T05:54:59;101317.66;;;11.99;100.00
68986;BME280;56035;37.534;-122.308;2023-06-14T05:57:25;101322.94;;;12.01;100.00
68986;BME280;56035;37.534;-122.308;2023-06-14T05:59:51;101321.50;;;11.98;100.00
68986;BME280;56035;37.534;-122.308;2023-06-14T06:02:17;101309.00;;;11.95;100.00
68986;BME280;56035;37.534;-122.308;2023-06-14T06:04:43;101313.06;;;11.93;100.00
68986;BME280;56035;37.534;-122.308;2023-06-14T06:07:08;101310.56;;;11.91;100.00
68986;BME280;56035;37.534;-122.308;2023-06-14T06:09:34;101319.94;;;11.90;100.00
68986;BME280;56035;37.534;-122.308;2023-06-14T06:12:00;101316.09;;;11.91;100.00
68986;BME280;56035;37.534;-122.308;2023-06-14T06:14:26;101311.03;;;11.88;100.00
68986;BME280;56035;37.534;-122.308;2023-06-14T06:16:53;101297.72;;;11.85;100.00
68986;BME280;56035;37.534;-122.308;2023-06-14T06:19:19;101297.47;;;11.87;100.00
68986;BME280;56035;37.534;-122.308;2023-06-14T06:21:47;101309.59;;;11.86;100.00
68986;BME280;56035;37.534;-122.308;2023-06-14T06:24:13;101305.16;;;11.85;100.00
68986;BME280;56035;37.534;-122.308;2023-06-14T06:26:39;101299.63;;;11.85;100.00
68986;BME280;56035;37.534;-122.308;2023-06-14T06:29:05;101288.78;;;11.83;100.00
68986;BME280;56035;37.534;-122.308;2023-06-14T06:31:31;101280.91;;;11.87;100.00
68986;BME280;56035;37.534;-122.308;2023-06-14T06:33:57;101282.59;;;11.88;100.00
68986;BME280;56035;37.534;-122.308;2023-06-14T06:36:23;101267.69;;;11.89;100.00
68986;BME280;56035;37.534;-122.308;2023-06-14T06:38:48;101270.25;;;11.90;100.00
68986;BME280;56035;37.534;-122.308;2023-06-14T06:41:14;101284.03;;;11.90;100.00
68986;BME280;56035;37.534;-122.308;2023-06-14T06:43:40;101281.88;;;11.92;100.00
68986;BME280;56035;37.534;-122.308;2023-06-14T06:46:06;101270.34;;;11.95;100.00
68986;BME280;56035;37.534;-122.308;2023-06-14T06:48:31;101266.50;;;11.97;100.00
68986;BME280;56035;37.534;-122.308;2023-06-14T06:50:57;101270.97;;;11.98;100.00
68986;BME280;56035;37.534;-122.308;2023-06-14T06:53:23;101267.72;;;12.01;100.00
68986;BME280;56035;37.534;-122.308;2023-06-14T06:55:49;101275.53;;;12.04;100.00
68986;BME280;56035;37.534;-122.308;2023-06-14T06:58:15;101275.53;;;12.04;100.00
68986;BME280;56035;37.534;-122.308;2023-06-14T07:00:41;101276.72;;;12.08;100.00
68986;BME280;56035;37.534;-122.308;2023-06-14T07:03:06;101294.97;;;12.09;100.00
68986;BME280;56035;37.534;-122.308;2023-06-14T07:05:32;101307.22;;;12.13;100.00
68986;BME280;56035;37.534;-122.308;2023-06-14T07:07:58;101296.78;;;12.15;100.00
68986;BME280;56035;37.534;-122.308;2023-06-14T07:10:24;101292.69;;;12.17;100.00
68986;BME280;56035;37.534;-122.308;2023-06-14T07:12:50;101294.72;;;12.22;100.00
68986;BME280;56035;37.534;-122.308;2023-06-14T07:15:16;101293.19;;;12.26;100.00
68986;BME280;56035;37.534;-122.308;2023-06-14T07:17:42;101297.38;;;12.29;100.00
68986;BME280;56035;37.534;-122.308;2023-06-14T07:20:08;101289.44;;;12.32;100.00
68986;BME280;56035;37.534;-122.308;2023-06-14T07:22:40;101294.50;;;12.35;100.00
68986;BME280;56035;37.534;-122.308;2023-06-14T07:25:09;101278.75;;;12.36;100.00
68986;BME280;56035;37.534;-122.308;2023-06-14T07:27:37;101288.47;;;12.38;100.00
68986;BME280;56035;37.534;-122.308;2023-06-14T07:30:03;101289.31;;;12.39;100.00
68986;BME280;56035;37.534;-122.308;2023-06-14T07:32:29;101302.91;;;12.40;100.00
68986;BME280;56035;37.534;-122.308;2023-06-14T07:34:55;101312.66;;;12.43;100.00
68986;BME280;56035;37.534;-122.308;2023-06-14T07:37:21;101310.25;;;12.47;100.00
68986;BME280;56035;37.534;-122.308;2023-06-14T07:39:47;101298.09;;;12.48;100.00
68986;BME280;56035;37.534;-122.308;2023-06-14T07:42:13;101281.50;;;12.48;100.00
68986;BME280;56035;37.534;-122.308;2023-06-14T07:44:38;101287.66;;;12.50;100.00
68986;BME280;56035;37.534;-122.308;2023-06-14T07:47:04;101292.09;;;12.51;100.00
68986;BME280;56035;37.534;-122.308;2023-06-14T07:49:30;101289.56;;;12.49;100.00
68986;BME280;56035;37.534;-122.308;2023-06-14T07:51:56;101283.78;;;12.51;100.00
68986;BME280;56035;37.534;-122.308;2023-06-14T07:54:22;101291.00;;;12.52;100.00
68986;BME280;56035;37.534;-122.308;2023-06-14T07:56:51;101278.00;;;12.52;100.00
68986;BME280;56035;37.534;-122.308;2023-06-14T07:59:18;101284.41;;;12.53;100.00
68986;BME280;56035;37.534;-122.308;2023-06-14T08:01:43;101275.25;;;12.52;100.00
68986;BME280;56035;37.534;-122.308;2023-06-14T08:04:15;101276.34;;;12.51;100.00
68986;BME280;56035;37.534;-122.308;2023-06-14T08:06:41;101274.19;;;12.53;100.00
68986;BME280;56035;37.534;-122.308;2023-06-14T08:09:09;101264.44;;;12.51;100.00
68986;BME280;56035;37.534;-122.308;2023-06-14T08:11:36;101257.00;;;12.51;100.00
68986;BME280;56035;37.534;-122.308;2023-06-14T08:14:02;101249.53;;;12.52;100.00
68986;BME280;56035;37.534;-122.308;2023-06-14T08:16:28;101244.84;;;12.52;100.00
68986;BME280;56035;37.534;-122.308;2023-06-14T08:18:54;101244.00;;;12.52;100.00
68986;BME280;56035;37.534;-122.308;2023-06-14T08:21:20;101227.91;;;12.49;100.00
68986;BME280;56035;37.534;-122.308;2023-06-14T08:23:46;101230.44;;;12.50;100.00
68986;BME280;56035;37.534;-122.308;2023-06-14T08:26:12;101219.88;;;12.47;100.00
68986;BME280;56035;37.534;-122.308;2023-06-14T08:28:38;101220.38;;;12.44;100.00
68986;BME280;56035;37.534;-122.308;2023-06-14T08:31:04;101233.84;;;12.40;100.00
68986;BME280;56035;37.534;-122.308;2023-06-14T08:33:30;101238.88;;;12.44;100.00
68986;BME280;56035;37.534;-122.308;2023-06-14T08:35:59;101244.16;;;12.45;100.00
68986;BME280;56035;37.534;-122.308;2023-06-14T08:38:24;101245.50;;;12.43;100.00
68986;BME280;56035;37.534;-122.308;2023-06-14T08:40:50;101260.16;;;12.43;100.00
68986;BME280;56035;37.534;-122.308;2023-06-14T08:43:18;101265.91;;;12.41;100.00
68986;BME280;56035;37.534;-122.308;2023-06-14T08:45:45;101262.28;;;12.41;100.00
68986;BME280;56035;37.534;-122.308;2023-06-14T08:48:12;101264.84;;;12.43;100.00
68986;BME280;56035;37.534;-122.308;2023-06-14T08:50:42;101254.50;;;12.38;100.00
68986;BME280;56035;37.534;-122.308;2023-06-14T08:53:09;101257.88;;;12.40;100.00
68986;BME280;56035;37.534;-122.308;2023-06-14T08:55:37;101260.00;;;12.38;100.00
68986;BME280;56035;37.534;-122.308;2023-06-14T08:58:05;101250.88;;;12.37;100.00
68986;BME280;56035;37.534;-122.308;2023-06-14T09:00:30;101251.50;;;12.39;100.00
68986;BME280;56035;37.534;-122.308;2023-06-14T09:02:58;101253.16;;;12.40;100.00
68986;BME280;56035;37.534;-122.308;2023-06-14T09:05:27;101251.50;;;12.39;100.00
68986;BME280;56035;37.534;-122.308;2023-06-14T09:07:53;101256.41;;;12.37;100.00
68986;BME280;56035;37.534;-122.308;2023-06-14T09:10:21;101251.13;;;12.36;100.00
68986;BME280;56035;37.534;-122.308;2023-06-14T09:12:48;101249.34;;;12.30;100.00
68986;BME280;56035;37.534;-122.308;2023-06-14T09:15:14;101245.72;;;12.29;100.00
68986;BME280;56035;37.534;-122.308;2023-06-14T09:17:40;101236.03;;;12.27;100.00
68986;BME280;56035;37.534;-122.308;2023-06-14T09:20:06;101238.16;;;12.25;100.00
68986;BME280;56035;37.534;-122.308;2023-06-14T09:22:38;101227.13;;;12.25;100.00
68986;BME280;56035;37.534;-122.308;2023-06-14T09:25:05;101227.59;;;12.22;100.00
68986;BME280;56035;37.534;-122.308;2023-06-14T09:27:31;101232.28;;;12.21;100.00
68986;BME280;56035;37.534;-122.308;2023-06-14T09:29:57;101247.19;;;12.20;100.00
68986;BME280;56035;37.534;-122.308;2023-06-14T09:32:24;101241.66;;;12.20;100.00
68986;BME280;56035;37.534;-122.308;2023-06-14T09:34:50;101239.13;;;12.18;100.00
68986;BME280;56035;37.534;-122.308;2023-06-14T09:37:29;101241.66;;;12.20;100.00
68986;BME280;56035;37.534;-122.308;2023-06-14T09:39:55;101228.91;;;12.19;100.00
68986;BME280;56035;37.534;-122.308;2023-06-14T09:42:20;101221.72;;;12.18;100.00
68986;BME280;56035;37.534;-122.308;2023-06-14T09:44:47;101226.41;;;12.17;100.00
68986;BME280;56035;37.534;-122.308;2023-06-14T09:47:14;101224.97;;;12.15;100.00
68986;BME280;56035;37.534;-122.308;2023-06-14T09:49:40;101223.88;;;12.16;100.00
68986;BME280;56035;37.534;-122.308;2023-06-14T09:52:06;101227.25;;;12.18;100.00
68986;BME280;56035;37.534;-122.308;2023-06-14T09:54:33;101216.47;;;12.16;100.00
68986;BME280;56035;37.534;-122.308;2023-06-14T09:57:01;101212.25;;;12.14;100.00
68986;BME280;56035;37.534;-122.308;2023-06-14T09:59:28;101217.78;;;12.14;100.00
68986;BME280;56035;37.534;-122.308;2023-06-14T10:01:59;101225.44;;;12.12;100.00
68986;BME280;56035;37.534;-122.308;2023-06-14T10:04:30;101221.38;;;12.14;100.00
68986;BME280;56035;37.534;-122.308;2023-06-14T10:06:56;101227.72;;;12.15;100.00
68986;BME280;56035;37.534;-122.308;2023-06-14T10:09:23;101233.72;;;12.12;100.00
68986;BME280;56035;37.534;-122.308;2023-06-14T10:11:49;101231.81;;;12.12;100.00
68986;BME280;56035;37.534;-122.308;2023-06-14T10:14:15;101224.34;;;12.13;100.00
68986;BME280;56035;37.534;-122.308;2023-06-14T10:17:00;101215.50;;;12.11;100.00
68986;BME280;56035;37.534;-122.308;2023-06-14T10:19:37;101239.25;;;12.12;100.00
68986;BME280;56035;37.534;-122.308;2023-06-14T10:22:08;101248.38;;;12.12;100.00
68986;BME280;56035;37.534;-122.308;2023-06-14T10:24:40;101238.41;;;12.11;100.00
68986;BME280;56035;37.534;-122.308;2023-06-14T10:27:07;101233.25;;;12.15;100.00
68986;BME280;56035;37.534;-122.308;2023-06-14T10:32:23;101242.63;;;12.14;100.00
68986;BME280;56035;37.534;-122.308;2023-06-14T10:34:59;101247.91;;;12.15;100.00
68986;BME280;56035;37.534;-122.308;2023-06-14T10:37:26;101246.84;;;12.16;100.00
68986;BME280;56035;37.534;-122.308;2023-06-14T10:39:52;101240.44;;;12.16;100.00
68986;BME280;56035;37.534;-122.308;2023-06-14T10:42:18;101250.19;;;12.18;100.00
68986;BME280;56035;37.534;-122.308;2023-06-14T10:44:45;101249.09;;;12.19;100.00
68986;BME280;56035;37.534;-122.308;2023-06-14T10:47:25;101252.09;;;12.18;100.00
68986;BME280;56035;37.534;-122.308;2023-06-14T10:49:52;101243.22;;;12.16;100.00
68986;BME280;56035;37.534;-122.308;2023-06-14T10:52:21;101236.00;;;12.15;100.00
68986;BME280;56035;37.534;-122.308;2023-06-14T10:57:33;101241.91;;;12.07;100.00
68986;BME280;56035;37.534;-122.308;2023-06-14T10:59:59;101234.94;;;12.04;100.00
68986;BME280;56035;37.534;-122.308;2023-06-14T11:02:41;101242.03;;;12.00;100.00
68986;BME280;56035;37.534;-122.308;2023-06-14T11:05:14;101231.84;;;12.01;100.00
68986;BME280;56035;37.534;-122.308;2023-06-14T11:08:15;101237.34;;;12.01;100.00
68986;BME280;56035;37.534;-122.308;2023-06-14T11:10:44;101227.97;;;12.02;100.00
68986;BME280;56035;37.534;-122.308;2023-06-14T11:13:12;101230.75;;;12.02;100.00
68986;BME280;56035;37.534;-122.308;2023-06-14T11:15:38;101224.59;;;12.00;100.00
68986;BME280;56035;37.534;-122.308;2023-06-14T11:18:08;101219.09;;;12.00;100.00
68986;BME280;56035;37.534;-122.308;2023-06-14T11:20:35;101216.56;;;11.98;100.00
68986;BME280;56035;37.534;-122.308;2023-06-14T11:23:01;101216.78;;;11.97;100.00
68986;BME280;56035;37.534;-122.308;2023-06-14T11:25:27;101212.97;;;11.98;100.00
68986;BME280;56035;37.534;-122.308;2023-06-14T11:27:53;101214.66;;;11.99;100.00
68986;BME280;56035;37.534;-122.308;2023-06-14T11:30:39;101199.66;;;11.94;100.00
68986;BME280;56035;37.534;-122.308;2023-06-14T11:33:09;101201.81;;;11.92;100.00
68986;BME280;56035;37.534;-122.308;2023-06-14T11:35:35;101188.72;;;11.88;100.00
68986;BME280;56035;37.534;-122.308;2023-06-14T11:38:01;101194.47;;;11.86;100.00
68986;BME280;56035;37.534;-122.308;2023-06-14T11:40:27;101188.38;;;11.84;100.00
68986;BME280;56035;37.534;-122.308;2023-06-14T11:42:59;101189.41;;;11.83;100.00
68986;BME280;56035;37.534;-122.308;2023-06-14T11:45:26;101185.81;;;11.83;100.00
68986;BME280;56035;37.534;-122.308;2023-06-14T11:47:53;101191.31;;;11.83;100.00
68986;BME280;56035;37.534;-122.308;2023-06-14T11:50:19;101187.72;;;11.82;100.00
68986;BME280;56035;37.534;-122.308;2023-06-14T11:52:51;101183.88;;;11.83;100.00
68986;BME280;56035;37.534;-122.308;2023-06-14T11:55:17;101177.34;;;11.84;100.00
68986;BME280;56035;37.534;-122.308;2023-06-14T11:57:43;101173.47;;;11.85;100.00
68986;BME280;56035;37.534;-122.308;2023-06-14T12:00:09;101176.47;;;11.84;100.00
68986;BME280;56035;37.534;-122.308;2023-06-14T12:02:38;101166.47;;;11.83;100.00
68986;BME280;56035;37.534;-122.308;2023-06-14T12:05:05;101158.19;;;11.83;100.00
68986;BME280;56035;37.534;-122.308;2023-06-14T12:07:38;101160.13;;;11.82;100.00
68986;BME280;56035;37.534;-122.308;2023-06-14T12:10:08;101155.69;;;11.81;100.00
68986;BME280;56035;37.534;-122.308;2023-06-14T12:12:36;101154.59;;;11.82;100.00
68986;BME280;56035;37.534;-122.308;2023-06-14T12:15:03;101160.75;;;11.84;100.00
68986;BME280;56035;37.534;-122.308;2023-06-14T12:17:33;101159.69;;;11.85;100.00
68986;BME280;56035;37.534;-122.308;2023-06-14T12:20:04;101164.94;;;11.87;100.00
68986;BME280;56035;37.534;-122.308;2023-06-14T12:22:32;101172.75;;;11.90;100.00